createdAt,value
2022-09-18T00:00:54.278Z,99302.34
2022-09-18T00:03:58.767Z,99308.41
2022-09-18T00:07:00.927Z,99309.53
2022-09-18T00:10:03.595Z,99309.88
2022-09-18T00:13:05.657Z,99312.25
2022-09-18T00:16:10.621Z,99311.56
2022-09-18T00:19:13.516Z,99309.31
2022-09-18T00:22:15.914Z,99311.69
2022-09-18T00:25:18.081Z,99313.69
2022-09-18T00:28:20.431Z,99315.19
2022-09-18T00:31:26.134Z,99311.25
2022-09-18T00:34:28.649Z,99313.25
2022-09-18T00:37:30.781Z,99313.25
2022-09-18T00:40:33.156Z,99314.97
2022-09-18T00:43:36.553Z,99324.88
2022-09-18T00:46:38.974Z,99324.09
2022-09-18T00:49:51.293Z,99319.59
2022-09-18T00:52:59.739Z,99318.22
2022-09-18T00:56:03.909Z,99313.03
2022-09-18T00:59:08.654Z,99323.41
2022-09-18T01:02:11.011Z,99325.91
2022-09-18T01:05:16.276Z,99325.19
2022-09-18T01:08:38.494Z,99329.47
2022-09-18T01:12:02.771Z,99324.31
2022-09-18T01:15:39.942Z,99327.56
2022-09-18T01:19:00.440Z,99332.41
2022-09-18T01:22:37.205Z,99341.56
2022-09-18T01:25:45.619Z,99339.66
2022-09-18T01:29:31.104Z,99348.19
2022-09-18T01:32:56.870Z,99343.16
2022-09-18T01:36:03.338Z,99363.31
2022-09-18T01:39:14.182Z,99345.63
2022-09-18T01:42:21.041Z,99363.66
2022-09-18T01:45:28.966Z,99364.53
2022-09-18T01:48:38.495Z,99384.97
2022-09-18T01:51:52.655Z,99380.19
2022-09-18T01:54:58.663Z,99390.00
2022-09-18T01:58:17.427Z,99404.16
2022-09-18T02:01:23.177Z,99401.25
2022-09-18T02:04:31.108Z,99401.72
2022-09-18T02:07:40.927Z,99401.72
2022-09-18T02:10:52.787Z,99419.41
2022-09-18T02:14:01.285Z,99408.44
2022-09-18T02:17:12.492Z,99411.72
2022-09-18T02:20:28.170Z,99422.50
2022-09-18T02:23:33.338Z,99430.00
2022-09-18T02:26:37.842Z,99438.56
2022-09-18T02:29:43.246Z,99434.09
2022-09-18T02:32:45.665Z,99441.09
2022-09-18T02:35:57.357Z,99437.28
2022-09-18T02:39:10.655Z,99440.25
2022-09-18T02:42:22.291Z,99448.88
2022-09-18T02:45:41.227Z,99437.28
2022-09-18T02:49:05.390Z,99448.22
2022-09-18T02:52:32.709Z,99451.09
2022-09-18T02:56:00.181Z,99459.16
2022-09-18T02:59:08.458Z,99440.28
2022-09-18T03:02:12.199Z,99433.31
2022-09-18T03:05:14.499Z,99447.44
2022-09-18T03:08:19.214Z,99448.88
2022-09-18T03:11:21.354Z,99454.97
2022-09-18T03:14:23.716Z,99451.94
2022-09-18T03:17:25.823Z,99458.00
2022-09-18T03:20:28.279Z,99464.38
2022-09-18T03:23:30.567Z,99462.47
2022-09-18T03:26:33.642Z,99482.97
2022-09-18T03:29:35.882Z,99488.03
2022-09-18T03:32:38.429Z,99491.84
2022-09-18T03:35:42.812Z,99495.16
2022-09-18T03:38:45.390Z,99498.84
2022-09-18T03:41:47.532Z,99499.84
2022-09-18T03:44:50.128Z,99495.84
2022-09-18T03:47:52.502Z,99505.94
2022-09-18T03:50:56.492Z,99515.03
2022-09-18T03:53:59.498Z,99514.53
2022-09-18T03:57:02.096Z,99508.56
2022-09-18T04:00:06.662Z,99520.66
2022-09-18T04:03:17.145Z,99525.56
2022-09-18T04:06:20.533Z,99542.75
2022-09-18T04:09:24.780Z,99536.25
2022-09-18T04:12:29.018Z,99533.72
2022-09-18T04:15:31.503Z,99542.47
2022-09-18T04:18:33.995Z,99538.66
2022-09-18T04:21:36.913Z,99540.59
2022-09-18T04:24:39.704Z,99548.84
2022-09-18T04:27:42.179Z,99553.91
2022-09-18T04:30:46.779Z,99549.03
2022-09-18T04:33:49.744Z,99565.56
2022-09-18T04:36:52.221Z,99562.50
2022-09-18T04:39:54.841Z,99562.97
2022-09-18T04:42:57.545Z,99561.66
2022-09-18T04:45:59.891Z,99558.16
2022-09-18T04:49:02.350Z,99560.69
2022-09-18T04:52:04.866Z,99573.72
2022-09-18T04:55:07.518Z,99580.56
2022-09-18T04:58:12.449Z,99576.72
2022-09-18T05:01:15.757Z,99592.78
2022-09-18T05:04:17.881Z,99613.25
2022-09-18T05:07:22.157Z,99598.50
2022-09-18T05:10:24.626Z,99610.06
2022-09-18T05:13:27.183Z,99607.03
2022-09-18T05:16:30.417Z,99601.00
2022-09-18T05:19:34.026Z,99601.78
2022-09-18T05:22:36.924Z,99612.09
2022-09-18T05:25:41.791Z,99614.31
2022-09-18T05:28:43.962Z,99612.09
2022-09-18T05:31:47.682Z,99608.44
2022-09-18T05:34:50.421Z,99611.41
2022-09-18T05:37:54.366Z,99603.28
2022-09-18T05:41:00.666Z,99611.84
2022-09-18T05:44:03.233Z,99608.31
2022-09-18T05:47:05.573Z,99614.28
2022-09-18T05:50:09.938Z,99616.97
2022-09-18T05:53:13.334Z,99619.19
2022-09-18T05:56:17.292Z,99613.88
2022-09-18T05:59:19.594Z,99611.28
2022-09-18T06:02:22.326Z,99615.88
2022-09-18T06:05:25.167Z,99613.94
2022-09-18T06:08:27.276Z,99606.63
2022-09-18T06:11:29.789Z,99614.25
2022-09-18T06:14:32.423Z,99622.44
2022-09-18T06:17:34.857Z,99616.22
2022-09-18T06:20:37.123Z,99607.50
2022-09-18T06:23:39.949Z,99617.97
2022-09-18T06:26:43.447Z,99621.56
2022-09-18T06:29:45.924Z,99617.12
2022-09-18T06:32:48.234Z,99625.50
2022-09-18T06:35:51.790Z,99628.75
2022-09-18T06:38:55.182Z,99636.88
2022-09-18T06:41:59.512Z,99641.88
2022-09-18T06:45:01.746Z,99648.34
2022-09-18T06:48:04.903Z,99637.78
2022-09-18T06:51:09.583Z,99636.78
2022-09-18T06:54:13.577Z,99633.38
2022-09-18T06:57:15.896Z,99627.00
2022-09-18T07:00:18.912Z,99631.31
2022-09-18T07:03:21.078Z,99634.94
2022-09-18T07:06:29.001Z,99635.66
2022-09-18T07:09:31.125Z,99640.75
2022-09-18T07:12:34.143Z,99656.16
2022-09-18T07:15:38.025Z,99654.09
2022-09-18T07:18:41.263Z,99675.09
2022-09-18T07:21:45.338Z,99656.72
2022-09-18T07:24:47.690Z,99662.94
2022-09-18T07:27:50.039Z,99660.91
2022-09-18T07:30:52.528Z,99656.16
2022-09-18T07:33:56.207Z,99656.31
2022-09-18T07:37:00.225Z,99656.09
2022-09-18T07:40:02.831Z,99672.03
2022-09-18T07:43:12.779Z,99661.62
2022-09-18T07:46:17.402Z,99677.91
2022-09-18T07:49:20.870Z,99673.53
2022-09-18T07:52:23.085Z,99685.62
2022-09-18T07:55:27.659Z,99689.44
2022-09-18T07:58:29.864Z,99706.78
2022-09-18T08:01:34.557Z,99707.12
2022-09-18T08:04:38.929Z,99717.16
2022-09-18T08:07:41.398Z,99710.22
2022-09-18T08:10:45.126Z,99724.53
2022-09-18T08:13:49.336Z,99699.22
2022-09-18T08:16:53.429Z,99699.84
2022-09-18T08:19:57.191Z,99693.44
2022-09-18T08:23:03.472Z,99700.72
2022-09-18T08:26:06.295Z,99694.34
2022-09-18T08:29:08.852Z,99715.16
2022-09-18T08:32:11.365Z,99702.50
2022-09-18T08:35:13.870Z,99710.06
2022-09-18T08:38:16.497Z,99712.06
2022-09-18T08:41:58.737Z,99709.41
2022-09-18T08:45:17.489Z,99709.91
2022-09-18T08:48:29.482Z,99718.63
2022-09-18T08:51:37.634Z,99715.91
2022-09-18T08:54:48.963Z,99725.03
2022-09-18T08:57:59.017Z,99714.78
2022-09-18T09:01:08.110Z,99705.03
2022-09-18T09:04:20.153Z,99708.78
2022-09-18T09:07:34.926Z,99713.53
2022-09-18T09:10:40.082Z,99715.25
2022-09-18T09:14:04.292Z,99716.63
2022-09-18T09:17:13.645Z,99709.31
2022-09-18T09:20:40.781Z,99718.13
2022-09-18T09:23:54.365Z,99705.91
2022-09-18T09:26:58.383Z,99709.78
2022-09-18T09:30:14.332Z,99714.81
2022-09-18T09:33:33.309Z,99709.56
2022-09-18T09:36:36.771Z,99728.63
2022-09-18T09:39:44.367Z,99722.75
2022-09-18T09:43:05.492Z,99730.16
2022-09-18T09:46:21.414Z,99727.22
2022-09-18T09:49:27.530Z,99738.19
2022-09-18T09:52:31.650Z,99735.22
2022-09-18T09:55:54.269Z,99739.56
2022-09-18T09:59:33.370Z,99742.06
2022-09-18T10:03:05.925Z,99745.00
2022-09-18T10:06:41.489Z,99743.44
2022-09-18T10:09:53.060Z,99747.94
2022-09-18T10:13:01.215Z,99746.62
2022-09-18T10:16:35.132Z,99755.25
2022-09-18T10:19:40.880Z,99753.31
2022-09-18T10:22:43.394Z,99750.44
2022-09-18T10:25:51.263Z,99783.38
2022-09-18T10:28:53.506Z,99768.72
2022-09-18T10:31:59.254Z,99751.50
2022-09-18T10:35:30.644Z,99761.91
2022-09-18T10:38:34.639Z,99760.44
2022-09-18T10:41:39.283Z,99763.25
2022-09-18T10:44:50.171Z,99764.81
2022-09-18T10:48:05.844Z,99778.03
2022-09-18T10:51:17.861Z,99781.28
2022-09-18T10:54:24.189Z,99779.09
2022-09-18T10:57:33.765Z,99760.44
2022-09-18T11:00:39.497Z,99763.34
2022-09-18T11:03:48.340Z,99759.47
2022-09-18T11:06:51.475Z,99773.81
2022-09-18T11:09:55.594Z,99799.50
2022-09-18T11:13:01.251Z,99765.44
2022-09-18T11:16:06.066Z,99764.56
2022-09-18T11:19:11.476Z,99769.47
2022-09-18T11:22:50.688Z,99764.56
2022-09-18T11:26:19.413Z,99768.34
2022-09-18T11:29:32.973Z,99760.44
2022-09-18T11:32:38.029Z,99779.50
2022-09-18T11:35:46.195Z,99770.44
2022-09-18T11:38:49.609Z,99764.56
2022-09-18T11:41:54.125Z,99752.28
2022-09-18T11:45:15.381Z,99753.28
2022-09-18T11:48:31.105Z,99752.78
2022-09-18T11:52:05.443Z,99747.81
2022-09-18T11:55:33.685Z,99754.03
2022-09-18T11:58:55.685Z,99742.44
2022-09-18T12:02:33.740Z,99745.41
2022-09-18T12:05:38.956Z,99736.25
2022-09-18T12:08:50.376Z,99739.19
2022-09-18T12:12:05.256Z,99733.50
2022-09-18T12:15:19.757Z,99725.06
2022-09-18T12:18:29.515Z,99726.47
2022-09-18T12:21:40.021Z,99741.66
2022-09-18T12:24:42.635Z,99749.00
2022-09-18T12:28:03.359Z,99739.09
2022-09-18T12:31:33.844Z,99742.28
2022-09-18T12:35:14.553Z,99736.34
2022-09-18T12:38:25.934Z,99721.75
2022-09-18T12:41:41.543Z,99720.59
2022-09-18T12:44:50.860Z,99735.59
2022-09-18T12:48:05.122Z,99742.13
2022-09-18T12:51:29.360Z,99735.34
2022-09-18T12:54:58.040Z,99725.56
2022-09-18T12:58:18.732Z,99714.38
2022-09-18T13:01:26.773Z,99716.09
2022-09-18T13:04:50.158Z,99714.16
2022-09-18T13:08:01.738Z,99706.41
2022-09-18T13:11:14.370Z,99709.47
2022-09-18T13:14:26.608Z,99713.44
2022-09-18T13:17:37.480Z,99720.81
2022-09-18T13:20:43.065Z,99718.66
2022-09-18T13:23:47.508Z,99718.53
2022-09-18T13:26:51.846Z,99720.28
2022-09-18T13:29:54.220Z,99733.00
2022-09-18T13:32:58.729Z,99728.34
2022-09-18T13:36:01.385Z,99725.56
2022-09-18T13:39:07.806Z,99742.34
2022-09-18T13:42:10.395Z,99770.31
2022-09-18T13:45:12.409Z,99782.19
2022-09-18T13:48:26.267Z,99810.59
2022-09-18T13:51:32.205Z,99817.78
2022-09-18T13:54:34.626Z,99829.97
2022-09-18T13:57:37.544Z,99837.06
2022-09-18T14:00:41.178Z,99836.16
2022-09-18T14:03:43.758Z,99835.00
2022-09-18T14:06:45.973Z,99837.12
2022-09-18T14:10:04.543Z,99817.25
2022-09-18T14:13:19.018Z,99817.63
2022-09-18T14:16:22.232Z,99824.03
2022-09-18T14:19:31.776Z,99819.75
2022-09-18T14:22:38.012Z,99826.44
2022-09-18T14:25:47.029Z,99825.75
2022-09-18T14:28:50.905Z,99830.59
2022-09-18T14:31:56.068Z,99838.72
2022-09-18T14:35:21.899Z,99836.00
2022-09-18T14:38:35.738Z,99831.63
2022-09-18T14:41:38.550Z,99839.66
2022-09-18T14:44:48.955Z,99834.25
2022-09-18T14:47:51.561Z,99841.25
2022-09-18T14:51:06.445Z,99846.47
2022-09-18T14:54:21.769Z,99844.44
2022-09-18T14:57:28.943Z,99843.56
2022-09-18T15:00:33.925Z,99838.47
2022-09-18T15:03:43.539Z,99839.53
2022-09-18T15:06:55.719Z,99828.13
2022-09-18T15:10:01.285Z,99834.91
2022-09-18T15:13:07.263Z,99829.25
2022-09-18T15:16:38.843Z,99828.59
2022-09-18T15:19:41.415Z,99818.16
2022-09-18T15:22:43.665Z,99812.16
2022-09-18T15:25:50.741Z,99817.03
2022-09-18T15:28:54.323Z,99822.69
2022-09-18T15:31:57.689Z,99828.47
2022-09-18T15:35:00.471Z,99835.44
2022-09-18T15:38:06.061Z,99838.28
2022-09-18T15:41:22.172Z,99852.97
2022-09-18T15:44:33.737Z,99836.66
2022-09-18T15:47:42.741Z,99834.16
2022-09-18T15:50:45.450Z,99846.75
2022-09-18T15:54:05.708Z,99836.56
2022-09-18T15:57:14.198Z,99839.41
2022-09-18T16:00:23.977Z,99856.25
2022-09-18T16:03:30.003Z,99849.16
2022-09-18T16:06:35.637Z,99859.88
2022-09-18T16:09:42.227Z,99861.59
2022-09-18T16:12:50.682Z,99871.59
2022-09-18T16:16:08.404Z,99864.63
2022-09-18T16:19:11.483Z,99874.34
2022-09-18T16:22:15.521Z,99881.69
2022-09-18T16:25:24.543Z,99888.47
2022-09-18T16:28:30.206Z,99891.41
2022-09-18T16:31:34.990Z,99881.88
2022-09-18T16:34:37.863Z,99877.38
2022-09-18T16:37:41.168Z,99880.06
2022-09-18T16:40:44.609Z,99884.81
2022-09-18T16:43:46.674Z,99884.81
2022-09-18T16:46:53.654Z,99879.13
2022-09-18T16:49:55.821Z,99890.62
2022-09-18T16:53:01.399Z,99886.03
2022-09-18T16:56:08.097Z,99876.78
2022-09-18T16:59:10.650Z,99880.03
2022-09-18T17:02:15.409Z,99873.56
2022-09-18T17:05:17.862Z,99878.03
2022-09-18T17:08:19.982Z,99874.09
2022-09-18T17:11:22.356Z,99869.84
2022-09-18T17:14:24.950Z,99870.19
2022-09-18T17:17:27.557Z,99871.75
2022-09-18T17:20:29.687Z,99868.78
2022-09-18T17:23:32.525Z,99868.12
2022-09-18T17:26:36.388Z,99866.69
2022-09-18T17:29:39.835Z,99868.53
2022-09-18T17:32:42.002Z,99880.75
2022-09-18T17:35:44.439Z,99883.66
2022-09-18T17:38:47.582Z,99888.31
2022-09-18T17:41:50.175Z,99886.69
2022-09-18T17:44:52.232Z,99886.50
2022-09-18T17:47:54.829Z,99887.63
2022-09-18T17:51:12.754Z,99895.75
2022-09-18T17:54:16.901Z,99895.44
2022-09-18T17:57:18.980Z,99899.91
2022-09-18T18:00:21.756Z,99901.03
2022-09-18T18:03:25.830Z,99905.31
2022-09-18T18:06:27.984Z,99916.78
2022-09-18T18:09:30.464Z,99906.59
2022-09-18T18:12:32.564Z,99920.59
2022-09-18T18:15:34.913Z,99927.28
2022-09-18T18:18:38.368Z,99914.91
2022-09-18T18:21:42.091Z,99928.12
2022-09-18T18:24:45.520Z,99928.62
2022-09-18T18:27:47.871Z,99932.00
2022-09-18T18:31:05.749Z,99935.22
2022-09-18T18:34:10.616Z,99945.69
2022-09-18T18:37:13.161Z,99936.47
2022-09-18T18:40:15.857Z,99942.38
2022-09-18T18:43:17.945Z,99939.97
2022-09-18T18:46:20.363Z,99942.22
2022-09-18T18:49:22.476Z,99936.28
2022-09-18T18:52:26.225Z,99937.34
2022-09-18T18:55:28.313Z,99938.53
2022-09-18T18:58:31.275Z,99944.47
2022-09-18T19:01:33.653Z,99946.56
2022-09-18T19:04:37.899Z,99944.19
2022-09-18T19:07:39.962Z,99947.19
2022-09-18T19:10:43.287Z,99934.81
2022-09-18T19:13:54.066Z,99937.22
2022-09-18T19:16:56.348Z,99938.03
2022-09-18T19:19:58.604Z,99931.13
2022-09-18T19:23:00.991Z,99921.44
2022-09-18T19:26:03.567Z,99925.44
2022-09-18T19:29:10.135Z,99928.16
2022-09-18T19:32:13.286Z,99927.06
2022-09-18T19:35:15.649Z,99935.66
2022-09-18T19:38:20.258Z,99931.81
2022-09-18T19:41:36.127Z,99937.25
2022-09-18T19:44:57.357Z,99932.94
2022-09-18T19:48:00.146Z,99942.47
2022-09-18T19:51:02.402Z,99947.25
2022-09-18T19:54:04.862Z,99944.38
2022-09-18T19:57:07.049Z,99939.25
2022-09-18T20:00:10.450Z,99938.31
2022-09-18T20:03:15.288Z,99937.34
2022-09-18T20:06:18.063Z,99939.41
2022-09-18T20:09:20.237Z,99938.44
2022-09-18T20:12:22.581Z,99932.22
2022-09-18T20:15:24.951Z,99925.69
2022-09-18T20:18:27.383Z,99931.28
2022-09-18T20:21:29.827Z,99932.56
2022-09-18T20:24:32.744Z,99928.72
2022-09-18T20:27:39.939Z,99931.94
2022-09-18T20:30:42.955Z,99929.69
2022-09-18T20:33:45.016Z,99923.66
2022-09-18T20:36:49.339Z,99910.41
2022-09-18T20:39:51.623Z,99908.66
2022-09-18T20:42:55.486Z,99912.81
2022-09-18T20:46:02.282Z,99912.19
2022-09-18T20:49:07.774Z,99909.63
2022-09-18T20:52:14.291Z,99911.81
2022-09-18T20:55:17.544Z,99908.81
2022-09-18T20:58:19.630Z,99907.19
2022-09-18T21:01:25.207Z,99895.84
2022-09-18T21:04:27.280Z,99901.94
2022-09-18T21:07:32.119Z,99900.69
2022-09-18T21:10:34.614Z,99880.44
2022-09-18T21:13:40.240Z,99885.00
2022-09-18T21:16:45.420Z,99892.97
2022-09-18T21:19:50.410Z,99885.16
2022-09-18T21:23:11.369Z,99877.84
2022-09-18T21:26:17.440Z,99882.59
2022-09-18T21:29:25.958Z,99878.37
2022-09-18T21:32:30.718Z,99876.47
2022-09-18T21:35:33.504Z,99880.09
2022-09-18T21:38:35.976Z,99880.88
2022-09-18T21:41:39.354Z,99883.06
2022-09-18T21:44:41.681Z,99867.94
2022-09-18T21:47:43.819Z,99871.25
2022-09-18T21:50:46.146Z,99868.06
2022-09-18T21:53:48.325Z,99849.91
2022-09-18T21:56:51.782Z,99835.56
2022-09-18T21:59:53.887Z,99847.09
2022-09-18T22:02:56.233Z,99842.97
2022-09-18T22:06:00.078Z,99841.16
2022-09-18T22:09:07.569Z,99842.63
2022-09-18T22:12:10.501Z,99848.94
2022-09-18T22:15:12.606Z,99841.56
2022-09-18T22:18:14.948Z,99838.06
2022-09-18T22:21:25.680Z,99836.66
2022-09-18T22:24:28.031Z,99836.88
2022-09-18T22:27:30.004Z,99831.09
2022-09-18T22:30:32.365Z,99817.09
2022-09-18T22:33:34.564Z,99823.56
2022-09-18T22:36:36.904Z,99834.56
2022-09-18T22:39:39.002Z,99828.78
2022-09-18T22:42:41.332Z,99829.72
2022-09-18T22:45:43.951Z,99826.13
2022-09-18T22:48:46.906Z,99831.91
2022-09-18T22:51:50.445Z,99823.63
2022-09-18T22:54:53.068Z,99829.84
2022-09-18T22:57:56.112Z,99822.50
2022-09-18T23:01:07.214Z,99814.84
2022-09-18T23:04:09.882Z,99820.03
2022-09-18T23:07:13.111Z,99824.66
2022-09-18T23:10:15.374Z,99811.66
2022-09-18T23:13:17.965Z,99816.47
2022-09-18T23:16:21.566Z,99816.72
2022-09-18T23:19:28.052Z,99819.53
2022-09-18T23:22:30.147Z,99828.25
2022-09-18T23:25:36.330Z,99823.72
2022-09-18T23:28:45.782Z,99818.16
2022-09-18T23:31:50.543Z,99813.41
2022-09-18T23:34:54.366Z,99804.72
2022-09-18T23:37:56.712Z,99816.56
2022-09-18T23:41:00.999Z,99816.22
2022-09-18T23:44:05.392Z,99810.16
2022-09-18T23:47:07.681Z,99809.31
2022-09-18T23:50:10.056Z,99805.41
2022-09-18T23:53:12.125Z,99810.28
2022-09-18T23:56:14.824Z,99809.09
2022-09-18T23:59:22.050Z,99809.38
